createdAt,value
2023-05-19T00:00:24.914Z,2.25
2023-05-19T00:03:13.678Z,2.42
2023-05-19T00:05:45.804Z,2.63
2023-05-19T00:08:17.632Z,2.50
2023-05-19T00:10:46.504Z,2.67
2023-05-19T00:13:15.185Z,3.13
2023-05-19T00:15:45.714Z,2.65
2023-05-19T00:18:14.582Z,2.05
2023-05-19T00:20:43.469Z,2.65
2023-05-19T00:23:11.970Z,2.33
2023-05-19T00:25:40.495Z,2.58
2023-05-19T00:28:08.633Z,2.33
2023-05-19T00:30:37.065Z,2.67
2023-05-19T00:33:06.727Z,2.35
2023-05-19T00:35:35.337Z,2.53
2023-05-19T00:38:03.482Z,2.25
2023-05-19T00:40:33.344Z,3.25
2023-05-19T00:43:01.740Z,2.63
2023-05-19T00:45:30.262Z,2.70
2023-05-19T00:47:58.668Z,2.25
2023-05-19T00:50:29.451Z,2.50
2023-05-19T00:52:57.983Z,2.03
2023-05-19T00:55:29.297Z,2.00
2023-05-19T00:57:58.118Z,2.10
2023-05-19T01:00:26.649Z,2.40
2023-05-19T01:02:56.220Z,2.10
2023-05-19T01:05:24.669Z,2.13
2023-05-19T01:07:56.487Z,1.70
2023-05-19T01:10:25.021Z,1.98
2023-05-19T01:12:53.233Z,1.70
2023-05-19T01:15:22.131Z,1.55
2023-05-19T01:17:55.710Z,1.70
2023-05-19T01:20:33.917Z,2.25
2023-05-19T01:23:24.884Z,1.67
2023-05-19T01:26:19.406Z,1.58
2023-05-19T01:29:10.100Z,1.70
2023-05-19T01:31:43.406Z,1.60
2023-05-19T01:34:14.383Z,1.80
2023-05-19T01:36:44.998Z,1.98
2023-05-19T01:39:14.254Z,1.90
2023-05-19T01:41:44.670Z,1.63
2023-05-19T01:44:13.303Z,1.90
2023-05-19T01:46:43.387Z,1.65
2023-05-19T01:49:14.821Z,1.77
2023-05-19T01:51:44.132Z,1.83
2023-05-19T01:54:12.292Z,2.42
2023-05-19T01:56:46.520Z,2.15
2023-05-19T01:59:29.566Z,2.28
2023-05-19T02:02:04.192Z,2.50
2023-05-19T02:04:40.672Z,2.58
2023-05-19T02:07:16.825Z,2.08
2023-05-19T02:09:54.270Z,1.95
2023-05-19T02:12:29.589Z,2.15
2023-05-19T02:15:04.710Z,2.15
2023-05-19T02:17:37.501Z,2.35
2023-05-19T02:20:06.933Z,2.88
2023-05-19T02:22:35.722Z,2.75
2023-05-19T02:25:04.213Z,2.30
2023-05-19T02:27:32.658Z,2.10
2023-05-19T02:30:00.795Z,2.60
2023-05-19T02:32:29.264Z,2.60
2023-05-19T02:34:58.825Z,2.85
2023-05-19T02:37:28.706Z,2.25
2023-05-19T02:39:57.118Z,2.20
2023-05-19T02:42:25.596Z,2.10
2023-05-19T02:44:55.290Z,2.63
2023-05-19T02:47:26.562Z,2.17
2023-05-19T02:49:54.755Z,2.40
2023-05-19T02:52:24.759Z,2.90
2023-05-19T02:54:52.900Z,2.30
2023-05-19T02:57:22.243Z,2.22
2023-05-19T02:59:51.099Z,2.53
2023-05-19T03:02:19.669Z,2.88
2023-05-19T03:04:47.834Z,2.50
2023-05-19T03:07:16.511Z,2.45
2023-05-19T03:09:46.374Z,1.90
2023-05-19T03:12:14.805Z,2.28
2023-05-19T03:14:44.404Z,2.42
2023-05-19T03:17:13.174Z,2.15
2023-05-19T03:19:41.586Z,1.98
2023-05-19T03:22:10.049Z,1.90
2023-05-19T03:24:38.164Z,1.98
2023-05-19T03:27:08.123Z,1.77
2023-05-19T03:29:36.928Z,1.90
2023-05-19T03:32:05.986Z,2.30
2023-05-19T03:34:35.479Z,2.10
2023-05-19T03:37:03.986Z,2.00
2023-05-19T03:39:32.115Z,1.90
2023-05-19T03:42:00.550Z,2.35
2023-05-19T03:44:31.439Z,2.03
2023-05-19T03:46:59.924Z,1.85
2023-05-19T03:49:28.058Z,2.42
2023-05-19T03:51:56.480Z,1.75
2023-05-19T03:54:24.777Z,2.17
2023-05-19T03:56:53.242Z,1.90
2023-05-19T03:59:21.456Z,1.60
2023-05-19T04:01:51.494Z,1.63
2023-05-19T04:04:19.746Z,1.95
2023-05-19T04:06:48.795Z,1.60
2023-05-19T04:09:17.747Z,2.05
2023-05-19T04:11:46.224Z,2.08
2023-05-19T04:14:14.366Z,1.58
2023-05-19T04:16:42.934Z,2.45
2023-05-19T04:19:13.488Z,1.85
2023-05-19T04:21:41.965Z,2.00
2023-05-19T04:24:10.172Z,1.33
2023-05-19T04:26:41.868Z,1.98
2023-05-19T04:29:10.773Z,1.58
2023-05-19T04:31:41.021Z,1.92
2023-05-19T04:34:10.100Z,2.05
2023-05-19T04:36:42.174Z,2.45
2023-05-19T04:39:12.377Z,2.17
2023-05-19T04:41:42.103Z,2.10
2023-05-19T04:46:38.607Z,2.00
2023-05-19T04:49:06.886Z,2.03
2023-05-19T04:51:37.162Z,1.87
2023-05-19T04:54:06.857Z,1.83
2023-05-19T04:56:35.304Z,1.50
2023-05-19T04:59:03.480Z,1.60
2023-05-19T05:01:33.907Z,1.45
2023-05-19T05:04:02.757Z,1.58
2023-05-19T05:06:31.788Z,1.30
2023-05-19T05:09:00.711Z,1.67
2023-05-19T05:11:34.067Z,1.08
2023-05-19T05:14:02.787Z,1.45
2023-05-19T05:16:32.080Z,1.67
2023-05-19T05:19:04.352Z,1.48
2023-05-19T05:21:33.351Z,1.50
2023-05-19T05:24:02.019Z,2.53
2023-05-19T05:26:34.831Z,1.27
2023-05-19T05:29:03.121Z,2.92
2023-05-19T05:31:31.641Z,4.57
2023-05-19T05:33:59.971Z,1.60
2023-05-19T05:36:28.386Z,2.15
2023-05-19T05:38:56.563Z,0.80
2023-05-19T05:41:24.981Z,1.27
2023-05-19T05:43:54.495Z,1.90
2023-05-19T05:46:22.966Z,0.80
2023-05-19T05:48:51.790Z,1.08
2023-05-19T05:51:22.759Z,1.63
2023-05-19T05:53:53.929Z,3.55
2023-05-19T05:56:23.200Z,3.00
2023-05-19T05:58:52.139Z,1.50
2023-05-19T06:01:21.977Z,1.25
2023-05-19T06:03:50.136Z,1.50
2023-05-19T06:06:18.552Z,1.27
2023-05-19T06:08:46.808Z,1.08
2023-05-19T06:11:15.278Z,1.20
2023-05-19T06:13:43.427Z,0.80
2023-05-19T06:16:12.208Z,0.70
2023-05-19T06:18:41.864Z,0.83
2023-05-19T06:21:13.563Z,0.80
2023-05-19T06:23:41.809Z,1.00
2023-05-19T06:26:10.320Z,1.17
2023-05-19T06:28:38.438Z,0.80
2023-05-19T06:31:06.913Z,1.10
2023-05-19T06:33:35.133Z,1.20
2023-05-19T06:36:05.596Z,1.33
2023-05-19T06:38:33.739Z,1.10
2023-05-19T06:41:02.462Z,1.75
2023-05-19T06:43:30.577Z,1.25
2023-05-19T06:45:59.105Z,1.10
2023-05-19T06:48:27.433Z,1.48
2023-05-19T06:50:56.123Z,0.90
2023-05-19T06:53:25.690Z,1.45
2023-05-19T06:55:59.843Z,1.10
2023-05-19T06:58:29.018Z,1.40
2023-05-19T07:00:57.633Z,1.60
2023-05-19T07:03:27.291Z,1.27
2023-05-19T07:05:56.299Z,1.25
2023-05-19T07:08:28.002Z,1.55
2023-05-19T07:10:56.537Z,1.30
2023-05-19T07:13:27.222Z,1.40
2023-05-19T07:15:56.788Z,1.48
2023-05-19T07:18:25.521Z,0.70
2023-05-19T07:20:54.374Z,1.00
2023-05-19T07:23:22.511Z,0.95
2023-05-19T07:25:56.197Z,1.30
2023-05-19T07:28:24.586Z,1.42
2023-05-19T07:30:53.246Z,1.10
2023-05-19T07:33:21.773Z,1.02
2023-05-19T07:35:50.337Z,1.40
2023-05-19T07:38:18.490Z,1.25
2023-05-19T07:40:46.967Z,1.40
2023-05-19T07:43:16.526Z,1.00
2023-05-19T07:45:45.199Z,1.33
2023-05-19T07:48:14.163Z,1.10
2023-05-19T07:50:42.703Z,1.50
2023-05-19T07:53:10.802Z,1.30
2023-05-19T07:55:39.230Z,1.10
2023-05-19T07:58:07.373Z,1.58
2023-05-19T08:00:37.771Z,1.80
2023-05-19T08:03:06.186Z,1.30
2023-05-19T08:05:35.734Z,1.45
2023-05-19T08:08:03.907Z,1.35
2023-05-19T08:10:32.583Z,1.10
2023-05-19T08:13:00.854Z,1.20
2023-05-19T08:15:29.623Z,1.10
2023-05-19T08:17:59.326Z,0.90
2023-05-19T08:20:27.780Z,0.90
2023-05-19T08:22:55.920Z,1.13
2023-05-19T08:25:24.495Z,0.63
2023-05-19T08:27:52.651Z,0.90
2023-05-19T08:30:21.488Z,0.50
2023-05-19T08:32:49.682Z,0.90
2023-05-19T08:35:19.524Z,2.08
2023-05-19T08:37:47.785Z,0.80
2023-05-19T08:40:19.095Z,0.93
2023-05-19T08:42:47.515Z,0.75
2023-05-19T08:45:16.222Z,1.00
2023-05-19T08:47:47.746Z,0.82
2023-05-19T08:50:22.985Z,0.85
2023-05-19T08:52:53.684Z,0.63
2023-05-19T08:55:34.045Z,0.55
2023-05-19T08:58:04.730Z,1.00
2023-05-19T09:00:34.543Z,1.00
2023-05-19T09:03:17.411Z,1.65
2023-05-19T09:05:48.161Z,2.25
2023-05-19T09:08:16.725Z,1.30
2023-05-19T09:10:45.350Z,1.02
2023-05-19T09:13:13.680Z,1.10
2023-05-19T09:15:43.630Z,0.80
2023-05-19T09:18:13.309Z,0.82
2023-05-19T09:20:43.189Z,0.90
2023-05-19T09:23:16.622Z,1.02
2023-05-19T09:25:49.660Z,0.73
2023-05-19T09:28:25.376Z,0.63
2023-05-19T09:31:04.298Z,1.13
2023-05-19T09:33:35.629Z,0.95
2023-05-19T09:36:06.149Z,1.33
2023-05-19T09:38:36.519Z,0.75
2023-05-19T09:41:06.526Z,1.30
2023-05-19T09:43:36.466Z,0.80
2023-05-19T09:46:06.747Z,1.25
2023-05-19T09:48:36.571Z,0.70
2023-05-19T09:51:06.591Z,0.80
2023-05-19T09:53:36.412Z,0.80
2023-05-19T09:56:05.210Z,0.60
2023-05-19T09:58:36.641Z,0.73
2023-05-19T10:01:06.496Z,0.88
2023-05-19T10:06:07.094Z,0.70
2023-05-19T10:08:38.632Z,1.00
2023-05-19T10:11:07.697Z,1.45
2023-05-19T10:13:38.723Z,1.58
2023-05-19T10:16:09.942Z,1.05
2023-05-19T10:18:40.218Z,1.20
2023-05-19T10:21:09.998Z,0.93
2023-05-19T10:26:09.234Z,0.93
2023-05-19T10:28:40.988Z,1.08
2023-05-19T10:31:14.064Z,1.15
2023-05-19T10:33:58.376Z,1.10
2023-05-19T10:36:38.574Z,1.63
2023-05-19T10:39:18.308Z,1.70
2023-05-19T10:42:01.824Z,1.40
2023-05-19T10:44:42.275Z,1.83
2023-05-19T10:47:12.390Z,1.67
2023-05-19T10:49:41.361Z,1.77
2023-05-19T10:52:21.557Z,2.03
2023-05-19T10:54:51.496Z,1.90
2023-05-19T10:57:21.535Z,1.92
2023-05-19T10:59:50.038Z,2.92
2023-05-19T11:02:41.538Z,1.58
2023-05-19T11:05:11.112Z,1.55
2023-05-19T11:07:43.533Z,1.73
2023-05-19T11:10:14.423Z,1.70
2023-05-19T11:12:44.397Z,1.38
2023-05-19T11:15:14.134Z,1.88
2023-05-19T11:17:43.803Z,1.33
2023-05-19T11:23:07.587Z,1.00
2023-05-19T11:25:48.417Z,1.30
2023-05-19T11:28:19.472Z,1.30
2023-05-19T11:30:51.944Z,1.63
2023-05-19T11:33:21.901Z,1.77
2023-05-19T11:35:51.757Z,1.40
2023-05-19T11:38:21.088Z,2.10
2023-05-19T11:40:54.532Z,1.90
2023-05-19T11:43:24.544Z,1.90
2023-05-19T11:45:53.488Z,1.95
2023-05-19T11:48:23.254Z,1.98
2023-05-19T11:50:52.593Z,1.63
2023-05-19T11:53:21.223Z,2.15
2023-05-19T11:55:51.087Z,2.33
2023-05-19T11:58:27.133Z,2.25
2023-05-19T12:00:55.548Z,3.25
2023-05-19T12:03:28.782Z,2.60
2023-05-19T12:05:57.856Z,1.50
2023-05-19T12:08:27.304Z,1.38
2023-05-19T12:10:57.384Z,1.08
2023-05-19T12:13:26.661Z,1.27
2023-05-19T12:15:54.912Z,1.05
2023-05-19T12:18:23.553Z,1.40
2023-05-19T12:20:51.894Z,1.10
2023-05-19T12:23:20.852Z,1.30
2023-05-19T12:25:50.627Z,1.23
2023-05-19T12:28:20.652Z,0.88
2023-05-19T12:30:52.030Z,0.98
2023-05-19T12:33:20.676Z,1.10
2023-05-19T12:35:50.516Z,1.38
2023-05-19T12:38:21.008Z,1.40
2023-05-19T12:40:50.994Z,0.90
2023-05-19T12:43:24.691Z,1.10
2023-05-19T12:45:53.474Z,1.58
2023-05-19T12:48:23.786Z,1.30
2023-05-19T12:50:54.362Z,1.02
2023-05-19T12:53:23.197Z,1.30
2023-05-19T12:55:53.865Z,1.27
2023-05-19T12:58:24.945Z,1.65
2023-05-19T13:01:00.810Z,2.70
2023-05-19T13:03:29.552Z,1.70
2023-05-19T13:05:59.692Z,1.00
2023-05-19T13:08:28.407Z,1.30
2023-05-19T13:10:56.522Z,1.40
2023-05-19T13:13:26.355Z,1.27
2023-05-19T13:15:54.859Z,1.45
2023-05-19T13:18:23.419Z,1.13
2023-05-19T13:20:53.055Z,1.70
2023-05-19T13:23:21.506Z,1.45
2023-05-19T13:25:51.554Z,1.35
2023-05-19T13:28:19.967Z,1.10
2023-05-19T13:30:49.732Z,1.23
2023-05-19T13:33:18.318Z,1.48
2023-05-19T13:35:46.466Z,1.52
2023-05-19T13:38:14.895Z,1.90
2023-05-19T13:40:43.024Z,1.50
2023-05-19T13:43:11.773Z,2.00
2023-05-19T13:45:41.256Z,1.90
2023-05-19T13:48:11.805Z,2.17
2023-05-19T13:50:40.036Z,2.88
2023-05-19T13:53:08.535Z,2.50
2023-05-19T13:55:36.663Z,2.28
2023-05-19T13:58:05.087Z,1.50
2023-05-19T14:00:33.639Z,1.55
2023-05-19T14:03:02.360Z,1.38
2023-05-19T14:05:32.656Z,1.65
2023-05-19T14:08:01.347Z,2.22
2023-05-19T14:10:29.641Z,2.17
2023-05-19T14:15:32.460Z,1.92
2023-05-19T14:18:00.913Z,2.08
2023-05-19T14:20:29.484Z,2.20
2023-05-19T14:22:59.379Z,2.22
2023-05-19T14:25:27.523Z,2.38
2023-05-19T14:27:56.000Z,2.60
2023-05-19T14:30:24.224Z,2.47
2023-05-19T14:32:52.914Z,2.23
2023-05-19T14:35:21.575Z,2.40
2023-05-19T14:37:49.988Z,2.30
2023-05-19T14:40:20.110Z,2.78
2023-05-19T14:42:48.615Z,2.35
2023-05-19T14:45:16.824Z,2.05
2023-05-19T14:47:46.194Z,2.40
2023-05-19T14:50:15.291Z,2.47
2023-05-19T14:52:43.742Z,2.55
2023-05-19T14:55:11.875Z,2.55
2023-05-19T14:57:41.693Z,2.83
2023-05-19T15:02:39.084Z,2.63
2023-05-19T15:05:07.936Z,3.05
2023-05-19T15:07:36.456Z,3.10
2023-05-19T15:10:05.353Z,2.97
2023-05-19T15:12:33.872Z,2.78
2023-05-19T15:15:03.965Z,3.15
2023-05-19T15:17:33.586Z,2.92
2023-05-19T15:20:02.065Z,3.20
2023-05-19T15:22:30.614Z,3.58
2023-05-19T15:24:58.726Z,4.05
2023-05-19T15:27:27.296Z,4.15
2023-05-19T15:29:55.738Z,4.25
2023-05-19T15:32:25.661Z,4.63
2023-05-19T15:34:53.956Z,4.05
2023-05-19T15:37:22.344Z,3.93
2023-05-19T15:39:50.572Z,3.70
2023-05-19T15:42:19.057Z,3.50
2023-05-19T15:44:47.841Z,4.25
2023-05-19T15:47:16.300Z,3.47
2023-05-19T15:49:45.848Z,3.20
2023-05-19T15:52:14.287Z,3.53
2023-05-19T15:54:42.588Z,2.83
2023-05-19T15:57:11.090Z,3.05
2023-05-19T15:59:39.506Z,3.10
2023-05-19T16:02:08.498Z,3.33
2023-05-19T16:04:37.800Z,2.97
2023-05-19T16:07:07.765Z,3.05
2023-05-19T16:09:35.948Z,2.72
2023-05-19T16:12:04.838Z,2.70
2023-05-19T16:14:36.450Z,2.30
2023-05-19T16:17:10.994Z,2.03
2023-05-19T16:19:39.319Z,2.30
2023-05-19T16:22:09.161Z,2.03
2023-05-19T16:24:37.656Z,2.55
2023-05-19T16:27:06.758Z,2.03
2023-05-19T16:29:34.974Z,2.35
2023-05-19T16:32:03.509Z,2.20
2023-05-19T16:34:32.474Z,2.00
2023-05-19T16:37:01.792Z,2.38
2023-05-19T16:39:40.725Z,2.58
2023-05-19T16:44:37.789Z,2.83
2023-05-19T16:47:06.520Z,3.33
2023-05-19T16:49:35.070Z,4.22
2023-05-19T16:52:03.810Z,3.05
2023-05-19T16:54:36.130Z,3.00
2023-05-19T16:57:05.054Z,3.58
2023-05-19T16:59:33.239Z,3.13
2023-05-19T17:02:01.941Z,3.03
2023-05-19T17:04:31.027Z,3.33
2023-05-19T17:09:28.101Z,2.95
2023-05-19T17:11:57.955Z,3.30
2023-05-19T17:14:26.204Z,2.85
2023-05-19T17:16:54.670Z,3.00
2023-05-19T17:19:23.098Z,2.90
2023-05-19T17:21:51.620Z,2.72
2023-05-19T17:24:19.838Z,2.85
2023-05-19T17:26:49.889Z,2.90
2023-05-19T17:29:19.588Z,3.50
2023-05-19T17:31:48.053Z,3.33
2023-05-19T17:34:16.311Z,3.08
2023-05-19T17:36:44.743Z,3.10
2023-05-19T17:39:12.927Z,3.13
2023-05-19T17:41:41.469Z,3.07
2023-05-19T17:44:09.858Z,3.28
2023-05-19T17:46:39.760Z,3.15
2023-05-19T17:49:08.071Z,2.70
2023-05-19T17:51:37.007Z,2.73
2023-05-19T17:54:06.268Z,3.33
2023-05-19T17:56:40.141Z,3.30
2023-05-19T17:59:08.903Z,3.45
2023-05-19T18:01:40.830Z,3.60
2023-05-19T18:04:10.493Z,3.58
2023-05-19T18:06:40.237Z,3.95
2023-05-19T18:11:38.504Z,3.15
2023-05-19T18:14:06.765Z,4.82
2023-05-19T18:16:35.297Z,3.63
2023-05-19T18:19:04.912Z,4.10
2023-05-19T18:21:33.838Z,3.88
2023-05-19T18:24:03.142Z,4.60
2023-05-19T18:26:33.097Z,4.70
2023-05-19T18:29:07.824Z,4.85
2023-05-19T18:31:36.381Z,5.00
2023-05-19T18:34:06.254Z,5.13
2023-05-19T18:36:37.694Z,4.68
2023-05-19T18:39:06.009Z,5.07
2023-05-19T18:41:37.489Z,4.45
2023-05-19T18:44:08.145Z,4.65
2023-05-19T18:46:36.677Z,4.38
2023-05-19T18:49:06.320Z,4.68
2023-05-19T18:51:36.069Z,3.97
2023-05-19T18:56:34.141Z,4.68
2023-05-19T18:59:02.437Z,5.25
2023-05-19T19:01:30.920Z,5.17
2023-05-19T19:03:59.314Z,4.78
2023-05-19T19:06:29.358Z,5.70
2023-05-19T19:08:57.965Z,5.25
2023-05-19T19:11:26.376Z,4.95
2023-05-19T19:13:56.396Z,5.05
2023-05-19T19:16:25.060Z,5.72
2023-05-19T19:18:55.796Z,5.70
2023-05-19T19:21:27.333Z,5.30
2023-05-19T19:23:58.724Z,5.28
2023-05-19T19:26:29.118Z,4.93
2023-05-19T19:28:57.531Z,5.35
2023-05-19T19:31:29.752Z,5.45
2023-05-19T19:34:00.929Z,4.82
2023-05-19T19:36:32.130Z,5.10
2023-05-19T19:39:01.713Z,3.72
2023-05-19T19:41:31.681Z,4.03
2023-05-19T19:44:00.132Z,4.22
2023-05-19T19:46:28.796Z,4.30
2023-05-19T19:48:59.206Z,4.30
2023-05-19T19:51:28.045Z,4.07
2023-05-19T19:53:56.360Z,3.80
2023-05-19T19:56:27.591Z,4.37
2023-05-19T19:58:56.889Z,3.45
2023-05-19T20:01:30.583Z,3.67
2023-05-19T20:03:58.879Z,4.00
2023-05-19T20:06:27.398Z,3.60
2023-05-19T20:08:58.058Z,4.30
2023-05-19T20:11:28.287Z,4.70
2023-05-19T20:13:56.780Z,5.13
2023-05-19T20:16:25.633Z,4.90
2023-05-19T20:18:53.827Z,4.50
2023-05-19T20:21:22.262Z,4.63
2023-05-19T20:23:51.203Z,4.47
2023-05-19T20:26:20.558Z,4.32
2023-05-19T20:28:50.081Z,5.20
2023-05-19T20:31:18.653Z,5.60
2023-05-19T20:33:49.550Z,5.57
2023-05-19T20:36:18.180Z,4.95
2023-05-19T20:38:47.943Z,5.68
2023-05-19T20:41:16.684Z,5.68
2023-05-19T20:43:44.868Z,5.20
2023-05-19T20:46:15.056Z,5.07
2023-05-19T20:48:43.235Z,5.10
2023-05-19T20:51:11.830Z,5.60
2023-05-19T20:53:42.302Z,4.85
2023-05-19T20:56:11.310Z,5.13
2023-05-19T20:58:39.444Z,5.20
2023-05-19T21:01:07.882Z,4.50
2023-05-19T21:03:37.424Z,4.85
2023-05-19T21:06:06.066Z,4.45
2023-05-19T21:08:34.320Z,4.03
2023-05-19T21:11:02.747Z,4.30
2023-05-19T21:13:30.987Z,3.97
2023-05-19T21:15:59.604Z,4.13
2023-05-19T21:18:29.629Z,3.75
2023-05-19T21:21:03.407Z,4.45
2023-05-19T21:23:31.781Z,3.70
2023-05-19T21:26:04.828Z,3.58
2023-05-19T21:28:33.010Z,3.88
2023-05-19T21:31:01.527Z,3.05
2023-05-19T21:33:32.522Z,3.70
2023-05-19T21:36:02.389Z,3.50
2023-05-19T21:38:30.643Z,3.42
2023-05-19T21:40:59.141Z,3.23
2023-05-19T21:43:27.338Z,3.03
2023-05-19T21:45:55.782Z,3.10
2023-05-19T21:48:23.958Z,2.75
2023-05-19T21:50:55.540Z,3.10
2023-05-19T21:53:27.703Z,2.45
2023-05-19T21:55:56.275Z,2.30
2023-05-19T21:58:25.116Z,2.80
2023-05-19T22:00:54.947Z,2.38
2023-05-19T22:03:23.583Z,2.20
2023-05-19T22:05:53.354Z,2.70
2023-05-19T22:10:53.720Z,2.58
2023-05-19T22:13:22.090Z,2.60
2023-05-19T22:15:50.872Z,2.08
2023-05-19T22:18:19.153Z,2.28
2023-05-19T22:20:47.676Z,2.37
2023-05-19T22:23:15.967Z,2.10
2023-05-19T22:25:44.554Z,1.58
2023-05-19T22:28:14.437Z,1.58
2023-05-19T22:30:44.088Z,1.90
2023-05-19T22:35:41.181Z,1.88
2023-05-19T22:38:10.583Z,2.03
2023-05-19T22:40:39.822Z,2.55
2023-05-19T22:43:10.037Z,2.25
2023-05-19T22:45:40.143Z,2.45
2023-05-19T22:48:08.592Z,2.58
2023-05-19T22:50:37.365Z,2.95
2023-05-19T22:53:05.476Z,2.10
2023-05-19T22:55:34.173Z,1.92
2023-05-19T22:58:02.575Z,1.30
2023-05-19T23:00:31.220Z,1.17
2023-05-19T23:03:00.847Z,0.98
2023-05-19T23:05:30.448Z,0.95
2023-05-19T23:07:58.599Z,0.90
2023-05-19T23:10:27.036Z,1.02
2023-05-19T23:12:55.350Z,0.90
2023-05-19T23:15:23.881Z,1.05
2023-05-19T23:17:52.126Z,1.00
2023-05-19T23:20:22.100Z,1.08
2023-05-19T23:22:50.213Z,1.20
2023-05-19T23:25:18.719Z,1.02
2023-05-19T23:27:47.592Z,1.20
2023-05-19T23:30:16.067Z,0.93
2023-05-19T23:32:44.213Z,0.88
2023-05-19T23:35:14.300Z,0.68
2023-05-19T23:37:43.996Z,1.00
2023-05-19T23:40:13.185Z,0.93
2023-05-19T23:42:41.355Z,1.00
2023-05-19T23:45:10.277Z,1.08
2023-05-19T23:47:38.803Z,1.00
2023-05-19T23:50:08.152Z,0.85
2023-05-19T23:52:36.286Z,0.75
2023-05-19T23:55:07.695Z,0.82
2023-05-19T23:57:35.840Z,0.80
